createdAt,value
2022-12-29T00:00:22.845Z,78.33
2022-12-29T00:03:10.736Z,78.34
2022-12-29T00:05:38.504Z,78.30
2022-12-29T00:08:06.667Z,78.22
2022-12-29T00:10:34.501Z,78.29
2022-12-29T00:13:21.107Z,78.32
2022-12-29T00:15:49.132Z,78.25
2022-12-29T00:18:17.053Z,78.20
2022-12-29T00:21:04.075Z,78.17
2022-12-29T00:23:50.131Z,78.20
2022-12-29T00:26:37.041Z,78.26
2022-12-29T00:29:23.271Z,78.26
2022-12-29T00:32:09.582Z,78.30
2022-12-29T00:34:55.920Z,78.29
2022-12-29T00:37:43.675Z,78.35
2022-12-29T00:40:30.082Z,78.31
2022-12-29T00:43:18.173Z,78.33
2022-12-29T00:45:46.384Z,78.42
2022-12-29T00:48:14.365Z,78.33
2022-12-29T00:50:42.178Z,78.26
2022-12-29T00:53:09.999Z,78.32
2022-12-29T00:55:38.693Z,78.24
2022-12-29T00:58:07.168Z,78.21
2022-12-29T01:00:35.561Z,78.28
2022-12-29T01:03:03.742Z,78.25
2022-12-29T01:05:31.816Z,78.24
2022-12-29T01:07:59.760Z,78.26
2022-12-29T01:10:27.696Z,78.26
2022-12-29T01:12:55.398Z,78.19
2022-12-29T01:15:23.294Z,78.16
2022-12-29T01:17:51.113Z,78.11
2022-12-29T01:20:18.968Z,78.18
2022-12-29T01:22:47.725Z,78.12
2022-12-29T01:25:15.680Z,78.14
2022-12-29T01:27:43.385Z,78.18
2022-12-29T01:30:13.095Z,78.15
2022-12-29T01:32:41.927Z,78.16
2022-12-29T01:35:11.123Z,78.13
2022-12-29T01:37:39.220Z,78.12
2022-12-29T01:40:08.122Z,78.01
2022-12-29T01:42:35.977Z,78.03
2022-12-29T01:45:08.863Z,78.06
2022-12-29T01:47:39.495Z,77.97
2022-12-29T01:50:10.482Z,78.06
2022-12-29T01:52:41.514Z,77.97
2022-12-29T01:55:11.080Z,77.99
2022-12-29T01:57:41.708Z,77.94
2022-12-29T02:00:11.434Z,78.00
2022-12-29T02:02:43.839Z,77.93
2022-12-29T02:05:15.183Z,77.91
2022-12-29T02:07:43.109Z,77.87
2022-12-29T02:10:11.953Z,77.95
2022-12-29T02:12:39.741Z,77.94
2022-12-29T02:15:09.218Z,77.85
2022-12-29T02:17:43.357Z,77.97
2022-12-29T02:20:29.081Z,77.87
2022-12-29T02:23:01.855Z,77.88
2022-12-29T02:25:41.047Z,77.86
2022-12-29T02:28:25.136Z,77.76
2022-12-29T02:31:03.326Z,77.77
2022-12-29T02:33:41.098Z,77.73
2022-12-29T02:36:14.854Z,77.73
2022-12-29T02:38:49.605Z,77.87
2022-12-29T02:41:23.314Z,77.78
2022-12-29T02:43:55.404Z,77.78
2022-12-29T02:46:42.383Z,77.79
2022-12-29T02:49:15.587Z,77.78
2022-12-29T02:51:59.535Z,77.74
2022-12-29T02:54:43.246Z,77.74
2022-12-29T02:57:15.689Z,77.79
2022-12-29T02:59:44.400Z,77.67
2022-12-29T03:02:35.792Z,77.63
2022-12-29T03:05:18.302Z,77.64
2022-12-29T03:07:51.218Z,77.47
2022-12-29T03:10:29.108Z,77.68
2022-12-29T03:13:20.426Z,77.71
2022-12-29T03:16:04.055Z,77.67
2022-12-29T03:18:39.068Z,77.71
2022-12-29T03:21:12.238Z,77.70
2022-12-29T03:23:42.027Z,77.75
2022-12-29T03:26:12.390Z,77.73
2022-12-29T03:28:42.049Z,77.71
2022-12-29T03:31:11.122Z,77.76
2022-12-29T03:33:42.302Z,77.72
2022-12-29T03:36:12.963Z,77.69
2022-12-29T03:38:45.096Z,77.64
2022-12-29T03:41:15.452Z,77.56
2022-12-29T03:43:46.254Z,77.46
2022-12-29T03:46:14.826Z,77.56
2022-12-29T03:48:43.316Z,77.51
2022-12-29T03:51:11.195Z,77.60
2022-12-29T03:53:39.009Z,77.58
2022-12-29T03:56:07.267Z,77.72
2022-12-29T03:58:35.288Z,77.78
2022-12-29T04:01:16.572Z,77.63
2022-12-29T04:03:46.173Z,77.74
2022-12-29T04:06:14.006Z,77.80
2022-12-29T04:08:48.479Z,77.83
2022-12-29T04:11:16.172Z,77.72
2022-12-29T04:13:43.949Z,77.78
2022-12-29T04:16:16.050Z,77.83
2022-12-29T04:18:43.841Z,77.74
2022-12-29T04:21:11.755Z,77.86
2022-12-29T04:23:42.041Z,77.72
2022-12-29T04:26:11.422Z,77.78
2022-12-29T04:28:57.962Z,77.70
2022-12-29T04:31:39.431Z,77.90
2022-12-29T04:34:08.020Z,77.93
2022-12-29T04:36:35.690Z,77.91
2022-12-29T04:39:05.559Z,77.91
2022-12-29T04:41:34.993Z,77.87
2022-12-29T04:44:03.182Z,77.89
2022-12-29T04:46:34.445Z,77.89
2022-12-29T04:49:09.062Z,77.93
2022-12-29T04:51:59.734Z,77.93
2022-12-29T04:54:27.708Z,77.88
2022-12-29T04:57:01.621Z,77.88
2022-12-29T04:59:29.910Z,77.95
2022-12-29T05:01:59.973Z,77.74
2022-12-29T05:04:27.900Z,77.93
2022-12-29T05:06:55.680Z,77.86
2022-12-29T05:09:24.761Z,77.93
2022-12-29T05:11:52.843Z,77.87
2022-12-29T05:14:20.984Z,77.87
2022-12-29T05:16:48.950Z,77.95
2022-12-29T05:19:18.550Z,77.94
2022-12-29T05:21:47.290Z,77.92
2022-12-29T05:24:15.913Z,77.94
2022-12-29T05:26:44.364Z,77.85
2022-12-29T05:29:32.185Z,77.97
2022-12-29T05:32:00.054Z,77.89
2022-12-29T05:34:28.564Z,77.94
2022-12-29T05:36:56.849Z,77.92
2022-12-29T05:39:25.414Z,78.05
2022-12-29T05:41:57.544Z,77.90
2022-12-29T05:44:37.290Z,77.88
2022-12-29T05:47:11.081Z,77.93
2022-12-29T05:49:52.051Z,77.93
2022-12-29T05:52:52.298Z,78.00
2022-12-29T05:55:20.701Z,77.99
2022-12-29T05:57:50.274Z,77.87
2022-12-29T06:00:19.070Z,77.96
2022-12-29T06:02:47.894Z,78.09
2022-12-29T06:05:17.311Z,77.92
2022-12-29T06:07:45.866Z,78.01
2022-12-29T06:10:16.110Z,78.04
2022-12-29T06:12:48.313Z,78.05
2022-12-29T06:15:16.478Z,78.02
2022-12-29T06:17:46.781Z,77.94
2022-12-29T06:20:14.643Z,78.11
2022-12-29T06:22:42.518Z,77.93
2022-12-29T06:25:10.895Z,77.95
2022-12-29T06:27:39.776Z,77.95
2022-12-29T06:30:11.049Z,78.03
2022-12-29T06:32:39.920Z,77.99
2022-12-29T06:35:10.804Z,78.12
2022-12-29T06:37:43.616Z,78.10
2022-12-29T06:40:12.112Z,78.13
2022-12-29T06:42:58.385Z,78.15
2022-12-29T06:45:57.890Z,78.15
2022-12-29T06:48:25.672Z,78.10
2022-12-29T06:50:53.360Z,78.14
2022-12-29T06:53:20.993Z,78.09
2022-12-29T06:55:48.677Z,78.07
2022-12-29T06:58:16.557Z,78.18
2022-12-29T07:00:45.733Z,78.04
2022-12-29T07:03:13.699Z,78.04
2022-12-29T07:05:41.949Z,78.12
2022-12-29T07:08:09.839Z,78.26
2022-12-29T07:10:37.609Z,78.13
2022-12-29T07:13:05.374Z,78.20
2022-12-29T07:15:33.339Z,78.18
2022-12-29T07:18:01.391Z,78.20
2022-12-29T07:20:30.538Z,78.17
2022-12-29T07:22:58.452Z,78.14
2022-12-29T07:25:26.321Z,78.10
2022-12-29T07:27:54.431Z,78.13
2022-12-29T07:30:22.094Z,78.17
2022-12-29T07:32:49.771Z,78.09
2022-12-29T07:35:17.859Z,78.09
2022-12-29T07:37:45.754Z,78.10
2022-12-29T07:40:13.556Z,78.16
2022-12-29T07:42:41.939Z,78.03
2022-12-29T07:45:11.415Z,78.12
2022-12-29T07:48:03.007Z,78.11
2022-12-29T07:50:30.712Z,78.14
2022-12-29T07:52:58.351Z,78.08
2022-12-29T07:55:26.208Z,77.95
2022-12-29T07:57:55.969Z,78.07
2022-12-29T08:00:23.780Z,78.03
2022-12-29T08:02:53.243Z,78.03
2022-12-29T08:05:21.082Z,78.10
2022-12-29T08:07:49.242Z,78.10
2022-12-29T08:10:17.524Z,78.19
2022-12-29T08:12:45.226Z,78.19
2022-12-29T08:15:12.988Z,78.24
2022-12-29T08:17:40.883Z,78.13
2022-12-29T08:20:09.702Z,78.10
2022-12-29T08:22:37.483Z,78.14
2022-12-29T08:25:06.189Z,78.18
2022-12-29T08:27:33.949Z,78.12
2022-12-29T08:30:01.842Z,78.10
2022-12-29T08:32:29.690Z,78.13
2022-12-29T08:34:57.461Z,78.18
2022-12-29T08:37:30.865Z,78.10
2022-12-29T08:40:00.625Z,78.01
2022-12-29T08:42:31.477Z,78.11
2022-12-29T08:44:59.431Z,78.03
2022-12-29T08:47:27.323Z,78.03
2022-12-29T08:49:55.121Z,78.03
2022-12-29T08:52:23.322Z,77.98
2022-12-29T08:54:52.182Z,78.00
2022-12-29T08:57:19.950Z,78.12
2022-12-29T09:00:01.730Z,78.02
2022-12-29T09:02:29.899Z,78.07
2022-12-29T09:04:57.842Z,77.99
2022-12-29T09:07:25.841Z,77.94
2022-12-29T09:09:53.605Z,78.00
2022-12-29T09:12:21.388Z,77.88
2022-12-29T09:14:49.070Z,78.00
2022-12-29T09:17:35.420Z,77.88
2022-12-29T09:20:03.609Z,77.99
2022-12-29T09:22:31.625Z,78.02
2022-12-29T09:24:59.455Z,77.99
2022-12-29T09:27:27.521Z,77.98
2022-12-29T09:29:55.341Z,77.96
2022-12-29T09:32:23.730Z,77.91
2022-12-29T09:34:52.174Z,77.93
2022-12-29T09:37:20.494Z,77.96
2022-12-29T09:39:54.079Z,77.88
2022-12-29T09:42:26.360Z,77.76
2022-12-29T09:45:02.213Z,77.83
2022-12-29T09:47:30.140Z,77.75
2022-12-29T09:50:01.962Z,77.78
2022-12-29T09:52:32.931Z,77.73
2022-12-29T09:55:07.545Z,77.67
2022-12-29T09:57:41.325Z,77.66
2022-12-29T10:00:13.794Z,77.73
2022-12-29T10:02:43.650Z,77.60
2022-12-29T10:05:17.424Z,77.56
2022-12-29T10:07:49.463Z,77.62
2022-12-29T10:10:24.061Z,77.61
2022-12-29T10:12:59.166Z,77.51
2022-12-29T10:15:40.365Z,77.56
2022-12-29T10:18:15.870Z,77.50
2022-12-29T10:20:50.603Z,77.48
2022-12-29T10:23:23.383Z,77.51
2022-12-29T10:25:53.904Z,77.50
2022-12-29T10:28:23.004Z,77.47
2022-12-29T10:30:52.920Z,77.66
2022-12-29T10:33:24.143Z,77.55
2022-12-29T10:35:52.212Z,77.56
2022-12-29T10:38:24.810Z,77.60
2022-12-29T10:40:56.677Z,77.70
2022-12-29T10:43:26.482Z,77.69
2022-12-29T10:45:55.592Z,77.56
2022-12-29T10:48:31.478Z,77.66
2022-12-29T10:51:02.421Z,77.62
2022-12-29T10:53:36.125Z,77.65
2022-12-29T10:56:07.128Z,77.58
2022-12-29T10:58:34.885Z,77.58
2022-12-29T11:01:04.362Z,77.55
2022-12-29T11:03:42.618Z,77.45
2022-12-29T11:06:11.707Z,77.47
2022-12-29T11:08:43.569Z,77.40
2022-12-29T11:11:11.313Z,77.51
2022-12-29T11:13:48.817Z,77.43
2022-12-29T11:16:27.692Z,77.40
2022-12-29T11:18:55.498Z,77.40
2022-12-29T11:21:26.473Z,77.41
2022-12-29T11:23:57.934Z,77.51
2022-12-29T11:26:31.803Z,77.43
2022-12-29T11:29:18.213Z,77.38
2022-12-29T11:31:46.828Z,77.36
2022-12-29T11:34:18.853Z,77.34
2022-12-29T11:36:46.927Z,77.32
2022-12-29T11:39:26.678Z,77.29
2022-12-29T11:41:54.749Z,77.29
2022-12-29T11:44:22.697Z,77.31
2022-12-29T11:46:52.842Z,77.27
2022-12-29T11:49:21.436Z,77.26
2022-12-29T11:51:50.469Z,77.27
2022-12-29T11:54:20.263Z,77.33
2022-12-29T11:56:49.016Z,77.28
2022-12-29T11:59:25.973Z,77.32
2022-12-29T12:01:54.181Z,77.46
2022-12-29T12:04:23.939Z,77.47
2022-12-29T12:06:59.039Z,77.51
2022-12-29T12:09:30.702Z,77.43
2022-12-29T12:12:00.186Z,77.45
2022-12-29T12:14:33.270Z,77.44
2022-12-29T12:17:11.605Z,77.24
2022-12-29T12:19:44.273Z,77.12
2022-12-29T12:22:15.163Z,77.19
2022-12-29T12:24:46.044Z,77.28
2022-12-29T12:27:16.230Z,77.26
2022-12-29T12:29:48.138Z,77.23
2022-12-29T12:32:18.294Z,77.20
2022-12-29T12:34:47.256Z,77.16
2022-12-29T12:37:29.951Z,77.14
2022-12-29T12:40:07.660Z,77.27
2022-12-29T12:42:41.922Z,77.26
2022-12-29T12:45:27.835Z,77.12
2022-12-29T12:48:01.482Z,77.18
2022-12-29T12:50:40.191Z,77.10
2022-12-29T12:53:16.352Z,77.20
2022-12-29T12:55:56.642Z,77.12
2022-12-29T12:58:30.725Z,77.04
2022-12-29T13:01:07.431Z,77.07
2022-12-29T13:03:45.817Z,77.05
2022-12-29T13:06:19.304Z,76.90
2022-12-29T13:09:10.366Z,76.95
2022-12-29T13:11:46.340Z,76.97
2022-12-29T13:14:23.415Z,76.96
2022-12-29T13:16:55.268Z,76.95
2022-12-29T13:19:29.382Z,76.97
2022-12-29T13:22:06.649Z,76.93
2022-12-29T13:24:42.378Z,76.92
2022-12-29T13:27:15.395Z,76.96
2022-12-29T13:29:47.567Z,76.98
2022-12-29T13:32:23.660Z,76.91
2022-12-29T13:34:57.847Z,76.94
2022-12-29T13:37:27.166Z,76.79
2022-12-29T13:39:57.322Z,76.89
2022-12-29T13:42:25.818Z,76.84
2022-12-29T13:44:55.477Z,76.87
2022-12-29T13:47:28.102Z,76.89
2022-12-29T13:49:57.188Z,76.85
2022-12-29T13:52:32.608Z,76.83
2022-12-29T13:55:03.170Z,76.81
2022-12-29T13:57:40.842Z,76.71
2022-12-29T14:00:14.073Z,76.71
2022-12-29T14:02:51.810Z,76.76
2022-12-29T14:05:29.906Z,76.73
2022-12-29T14:08:01.977Z,76.66
2022-12-29T14:10:33.899Z,76.61
2022-12-29T14:13:03.339Z,76.71
2022-12-29T14:15:31.375Z,76.74
2022-12-29T14:18:06.341Z,76.59
2022-12-29T14:20:34.887Z,76.74
2022-12-29T14:23:17.449Z,76.65
2022-12-29T14:26:00.051Z,76.65
2022-12-29T14:28:29.200Z,76.69
2022-12-29T14:30:57.640Z,76.45
2022-12-29T14:33:27.056Z,76.54
2022-12-29T14:35:55.798Z,76.44
2022-12-29T14:38:28.207Z,76.55
2022-12-29T14:41:12.949Z,76.54
2022-12-29T14:43:52.300Z,76.53
2022-12-29T14:46:20.148Z,76.47
2022-12-29T14:48:48.401Z,76.33
2022-12-29T14:51:21.227Z,76.46
2022-12-29T14:53:49.598Z,76.40
2022-12-29T14:56:18.241Z,76.36
2022-12-29T14:58:51.624Z,76.39
2022-12-29T15:01:26.079Z,76.39
2022-12-29T15:03:57.470Z,76.34
2022-12-29T15:06:26.327Z,76.37
2022-12-29T15:08:56.748Z,76.38
2022-12-29T15:11:25.698Z,76.31
2022-12-29T15:13:53.706Z,76.23
2022-12-29T15:16:25.455Z,76.32
2022-12-29T15:18:53.191Z,76.31
2022-12-29T15:21:24.565Z,76.28
2022-12-29T15:23:53.258Z,76.18
2022-12-29T15:26:23.058Z,76.21
2022-12-29T15:28:51.994Z,76.20
2022-12-29T15:31:24.854Z,76.07
2022-12-29T15:34:04.210Z,76.24
2022-12-29T15:36:37.606Z,76.11
2022-12-29T15:39:19.223Z,76.19
2022-12-29T15:42:04.363Z,76.13
2022-12-29T15:44:36.410Z,76.14
2022-12-29T15:47:05.289Z,76.16
2022-12-29T15:49:36.677Z,76.07
2022-12-29T15:52:08.792Z,76.03
2022-12-29T15:54:37.415Z,76.14
2022-12-29T15:57:16.735Z,76.03
2022-12-29T15:59:47.407Z,76.13
2022-12-29T16:02:15.512Z,76.06
2022-12-29T16:05:16.017Z,76.03
2022-12-29T16:07:41.737Z,76.00
2022-12-29T16:10:23.512Z,76.06
2022-12-29T16:12:51.547Z,75.99
2022-12-29T16:15:19.863Z,76.03
2022-12-29T16:17:49.019Z,76.03
2022-12-29T16:20:18.851Z,75.89
2022-12-29T16:22:49.669Z,75.95
2022-12-29T16:25:20.831Z,75.94
2022-12-29T16:27:48.690Z,75.91
2022-12-29T16:30:24.288Z,75.98
2022-12-29T16:32:57.770Z,75.88
2022-12-29T16:35:27.165Z,75.88
2022-12-29T16:38:13.753Z,76.00
2022-12-29T16:40:50.946Z,75.97
2022-12-29T16:43:23.501Z,76.03
2022-12-29T16:46:08.882Z,75.97
2022-12-29T16:48:37.676Z,75.93
2022-12-29T16:51:07.300Z,76.13
2022-12-29T16:53:37.661Z,76.10
2022-12-29T16:56:10.134Z,76.12
2022-12-29T16:58:39.183Z,76.11
2022-12-29T17:01:14.979Z,76.02
2022-12-29T17:03:44.892Z,76.15
2022-12-29T17:06:15.110Z,76.16
2022-12-29T17:08:43.478Z,76.10
2022-12-29T17:11:38.810Z,76.13
2022-12-29T17:14:15.530Z,76.06
2022-12-29T17:16:43.740Z,76.07
2022-12-29T17:19:16.522Z,76.14
2022-12-29T17:21:44.621Z,75.92
2022-12-29T17:24:15.606Z,75.96
2022-12-29T17:26:43.398Z,75.99
2022-12-29T17:29:13.685Z,75.99
2022-12-29T17:31:41.520Z,76.00
2022-12-29T17:34:11.631Z,75.94
2022-12-29T17:36:39.534Z,76.01
2022-12-29T17:39:08.625Z,76.03
2022-12-29T17:41:36.719Z,75.92
2022-12-29T17:44:04.993Z,75.96
2022-12-29T17:46:32.723Z,75.79
2022-12-29T17:49:00.960Z,75.79
2022-12-29T17:51:28.950Z,75.92
2022-12-29T17:53:56.708Z,75.84
2022-12-29T17:56:24.435Z,75.88
2022-12-29T17:58:52.403Z,75.98
2022-12-29T18:01:21.485Z,75.81
2022-12-29T18:03:49.606Z,75.81
2022-12-29T18:06:17.588Z,75.80
2022-12-29T18:08:45.231Z,75.91
2022-12-29T18:11:20.519Z,75.76
2022-12-29T18:13:48.410Z,75.74
2022-12-29T18:16:16.393Z,75.72
2022-12-29T18:18:44.099Z,75.69
2022-12-29T18:21:16.624Z,75.74
2022-12-29T18:23:44.445Z,75.70
2022-12-29T18:26:19.614Z,75.67
2022-12-29T18:28:50.728Z,75.67
2022-12-29T18:31:20.285Z,75.62
2022-12-29T18:33:48.862Z,75.67
2022-12-29T18:36:17.047Z,75.70
2022-12-29T18:38:46.060Z,75.76
2022-12-29T18:41:15.749Z,75.66
2022-12-29T18:43:43.818Z,75.66
2022-12-29T18:46:14.933Z,75.58
2022-12-29T18:48:47.020Z,75.62
2022-12-29T18:51:16.459Z,75.55
2022-12-29T18:53:44.976Z,75.48
2022-12-29T18:56:13.538Z,75.62
2022-12-29T18:58:41.433Z,75.68
2022-12-29T19:01:18.459Z,75.62
2022-12-29T19:03:47.312Z,75.72
2022-12-29T19:06:15.340Z,75.53
2022-12-29T19:08:43.445Z,75.67
2022-12-29T19:11:11.175Z,75.69
2022-12-29T19:13:39.996Z,75.69
2022-12-29T19:16:09.144Z,75.68
2022-12-29T19:18:47.472Z,75.73
2022-12-29T19:21:19.408Z,75.63
2022-12-29T19:23:47.628Z,75.70
2022-12-29T19:26:27.221Z,75.75
2022-12-29T19:28:55.711Z,75.78
2022-12-29T19:31:23.808Z,75.59
2022-12-29T19:33:52.146Z,75.66
2022-12-29T19:36:20.528Z,75.61
2022-12-29T19:38:48.267Z,75.75
2022-12-29T19:41:16.130Z,75.69
2022-12-29T19:43:44.492Z,75.73
2022-12-29T19:46:15.091Z,75.77
2022-12-29T19:48:43.151Z,75.65
2022-12-29T19:51:15.083Z,75.61
2022-12-29T19:53:43.355Z,75.64
2022-12-29T19:56:11.815Z,75.73
2022-12-29T19:58:45.204Z,75.72
2022-12-29T20:01:15.678Z,75.74
2022-12-29T20:03:43.918Z,75.75
2022-12-29T20:06:11.902Z,75.69
2022-12-29T20:08:40.266Z,75.81
2022-12-29T20:11:09.524Z,75.93
2022-12-29T20:13:37.608Z,75.88
2022-12-29T20:16:11.858Z,75.96
2022-12-29T20:18:39.875Z,75.76
2022-12-29T20:21:08.868Z,75.84
2022-12-29T20:23:38.590Z,75.76
2022-12-29T20:26:08.521Z,75.70
2022-12-29T20:28:36.410Z,75.62
2022-12-29T20:31:07.193Z,75.67
2022-12-29T20:33:35.684Z,75.56
2022-12-29T20:36:07.519Z,75.59
2022-12-29T20:38:35.951Z,75.66
2022-12-29T20:41:04.121Z,75.61
2022-12-29T20:43:33.585Z,75.47
2022-12-29T20:46:21.050Z,75.46
2022-12-29T20:49:03.101Z,75.53
2022-12-29T20:52:07.489Z,75.54
2022-12-29T20:54:39.435Z,75.61
2022-12-29T20:57:14.813Z,75.61
2022-12-29T20:59:43.879Z,75.49
2022-12-29T21:02:28.899Z,75.48
2022-12-29T21:05:22.774Z,75.44
2022-12-29T21:07:45.539Z,75.40
2022-12-29T21:10:13.642Z,75.49
2022-12-29T21:12:42.638Z,75.55
2022-12-29T21:15:15.199Z,75.50
2022-12-29T21:17:44.031Z,75.48
2022-12-29T21:20:20.887Z,75.56
2022-12-29T21:22:49.790Z,75.52
2022-12-29T21:25:18.025Z,75.57
2022-12-29T21:27:45.894Z,75.52
2022-12-29T21:32:59.167Z,75.40
2022-12-29T21:35:30.599Z,75.43
2022-12-29T21:37:58.986Z,75.59
2022-12-29T21:40:27.665Z,75.58
2022-12-29T21:42:56.045Z,75.57
2022-12-29T21:45:27.200Z,75.57
2022-12-29T21:48:15.495Z,75.64
2022-12-29T21:51:05.854Z,75.62
2022-12-29T21:53:39.665Z,75.63
2022-12-29T21:56:09.615Z,75.64
2022-12-29T21:58:57.185Z,75.50
2022-12-29T22:01:43.888Z,75.51
2022-12-29T22:04:30.761Z,75.58
2022-12-29T22:07:16.888Z,75.46
2022-12-29T22:10:03.454Z,75.41
2022-12-29T22:12:50.888Z,75.39
2022-12-29T22:15:19.921Z,75.48
2022-12-29T22:17:49.301Z,75.40
2022-12-29T22:20:23.090Z,75.36
2022-12-29T22:22:51.047Z,75.50
2022-12-29T22:25:19.474Z,75.36
2022-12-29T22:27:47.274Z,75.31
2022-12-29T22:30:15.789Z,75.31
2022-12-29T22:32:43.860Z,75.29
2022-12-29T22:35:13.411Z,75.35
2022-12-29T22:37:44.303Z,75.45
2022-12-29T22:40:36.609Z,75.43
2022-12-29T22:43:11.071Z,75.27
2022-12-29T22:45:41.851Z,75.37
2022-12-29T22:48:12.987Z,75.29
2022-12-29T22:50:43.758Z,75.32
2022-12-29T22:53:16.400Z,75.33
2022-12-29T22:55:47.136Z,75.35
2022-12-29T22:58:15.246Z,75.29
2022-12-29T23:00:42.973Z,75.32
2022-12-29T23:03:11.244Z,75.36
2022-12-29T23:05:41.501Z,75.29
2022-12-29T23:08:09.380Z,75.27
2022-12-29T23:10:44.429Z,75.26
2022-12-29T23:13:12.440Z,75.30
2022-12-29T23:15:46.755Z,75.33
2022-12-29T23:18:15.411Z,75.30
2022-12-29T23:20:43.414Z,75.25
2022-12-29T23:23:11.312Z,75.23
2022-12-29T23:25:39.282Z,75.15
2022-12-29T23:28:09.597Z,75.10
2022-12-29T23:30:38.076Z,75.27
2022-12-29T23:33:07.880Z,75.19
2022-12-29T23:35:36.662Z,75.12
2022-12-29T23:38:04.474Z,75.11
2022-12-29T23:40:33.087Z,75.08
2022-12-29T23:43:00.886Z,75.06
2022-12-29T23:45:28.784Z,74.97
2022-12-29T23:47:56.647Z,74.95
2022-12-29T23:50:24.447Z,75.03
2022-12-29T23:52:52.358Z,74.88
2022-12-29T23:55:22.204Z,74.92
2022-12-29T23:57:54.864Z,74.87
